sensor_id;sensor_type;location;lat;lon;timestamp;P1;durP1;ratioP1;P2;durP2;ratioP2
9797;SDS011;4938;57.492;12.652;2022-07-17T00:01:17;0.43;;;0.43;;
9797;SDS011;4938;57.492;12.652;2022-07-17T00:04:05;0.40;;;0.40;;
9797;SDS011;4938;57.492;12.652;2022-07-17T00:06:53;0.40;;;0.40;;
9797;SDS011;4938;57.492;12.652;2022-07-17T00:09:40;0.50;;;0.50;;
9797;SDS011;4938;57.492;12.652;2022-07-17T00:12:27;0.50;;;0.50;;
9797;SDS011;4938;57.492;12.652;2022-07-17T00:15:14;0.30;;;0.30;;
9797;SDS011;4938;57.492;12.652;2022-07-17T00:18:01;0.30;;;0.30;;
9797;SDS011;4938;57.492;12.652;2022-07-17T00:20:48;0.30;;;0.30;;
9797;SDS011;4938;57.492;12.652;2022-07-17T00:23:37;0.30;;;0.30;;
9797;SDS011;4938;57.492;12.652;2022-07-17T00:26:24;0.37;;;0.37;;
9797;SDS011;4938;57.492;12.652;2022-07-17T00:29:11;0.40;;;0.40;;
9797;SDS011;4938;57.492;12.652;2022-07-17T00:31:58;0.33;;;0.33;;
9797;SDS011;4938;57.492;12.652;2022-07-17T00:34:45;0.40;;;0.40;;
9797;SDS011;4938;57.492;12.652;2022-07-17T00:37:37;0.67;;;0.67;;
9797;SDS011;4938;57.492;12.652;2022-07-17T00:40:26;0.33;;;0.33;;
9797;SDS011;4938;57.492;12.652;2022-07-17T00:43:13;0.67;;;0.33;;
9797;SDS011;4938;57.492;12.652;2022-07-17T00:46:01;0.70;;;0.50;;
9797;SDS011;4938;57.492;12.652;2022-07-17T00:48:49;0.50;;;0.50;;
9797;SDS011;4938;57.492;12.652;2022-07-17T00:51:36;0.50;;;0.50;;
9797;SDS011;4938;57.492;12.652;2022-07-17T00:54:23;0.50;;;0.50;;
9797;SDS011;4938;57.492;12.652;2022-07-17T00:57:13;0.60;;;0.40;;
9797;SDS011;4938;57.492;12.652;2022-07-17T01:00:01;0.50;;;0.50;;
9797;SDS011;4938;57.492;12.652;2022-07-17T01:02:52;0.63;;;0.50;;
9797;SDS011;4938;57.492;12.652;2022-07-17T01:05:41;0.77;;;0.67;;
9797;SDS011;4938;57.492;12.652;2022-07-17T01:08:28;0.47;;;0.40;;
9797;SDS011;4938;57.492;12.652;2022-07-17T01:11:15;0.40;;;0.40;;
9797;SDS011;4938;57.492;12.652;2022-07-17T01:14:04;1.03;;;0.67;;
9797;SDS011;4938;57.492;12.652;2022-07-17T01:16:52;0.83;;;0.67;;
9797;SDS011;4938;57.492;12.652;2022-07-17T01:19:39;0.40;;;0.40;;
9797;SDS011;4938;57.492;12.652;2022-07-17T01:22:28;0.60;;;0.60;;
9797;SDS011;4938;57.492;12.652;2022-07-17T01:25:16;1.47;;;0.50;;
9797;SDS011;4938;57.492;12.652;2022-07-17T01:28:05;0.40;;;0.40;;
9797;SDS011;4938;57.492;12.652;2022-07-17T01:30:52;0.63;;;0.50;;
9797;SDS011;4938;57.492;12.652;2022-07-17T01:33:39;1.00;;;0.67;;
9797;SDS011;4938;57.492;12.652;2022-07-17T01:36:26;0.50;;;0.50;;
9797;SDS011;4938;57.492;12.652;2022-07-17T01:39:15;0.60;;;0.50;;
9797;SDS011;4938;57.492;12.652;2022-07-17T01:42:02;0.50;;;0.43;;
9797;SDS011;4938;57.492;12.652;2022-07-17T01:44:49;0.73;;;0.60;;
9797;SDS011;4938;57.492;12.652;2022-07-17T01:47:36;0.40;;;0.40;;
9797;SDS011;4938;57.492;12.652;2022-07-17T01:50:23;1.37;;;0.90;;
9797;SDS011;4938;57.492;12.652;2022-07-17T01:53:10;0.57;;;0.50;;
9797;SDS011;4938;57.492;12.652;2022-07-17T01:55:59;0.57;;;0.57;;
9797;SDS011;4938;57.492;12.652;2022-07-17T01:58:46;0.63;;;0.50;;
9797;SDS011;4938;57.492;12.652;2022-07-17T02:01:33;0.83;;;0.47;;
9797;SDS011;4938;57.492;12.652;2022-07-17T02:04:20;0.57;;;0.50;;
9797;SDS011;4938;57.492;12.652;2022-07-17T02:07:07;0.90;;;0.53;;
9797;SDS011;4938;57.492;12.652;2022-07-17T02:09:55;0.70;;;0.50;;
9797;SDS011;4938;57.492;12.652;2022-07-17T02:12:43;1.00;;;0.70;;
9797;SDS011;4938;57.492;12.652;2022-07-17T02:15:30;1.33;;;0.80;;
9797;SDS011;4938;57.492;12.652;2022-07-17T02:18:17;0.60;;;0.60;;
9797;SDS011;4938;57.492;12.652;2022-07-17T02:21:04;0.50;;;0.50;;
9797;SDS011;4938;57.492;12.652;2022-07-17T02:23:51;0.80;;;0.70;;
9797;SDS011;4938;57.492;12.652;2022-07-17T02:26:38;0.70;;;0.60;;
9797;SDS011;4938;57.492;12.652;2022-07-17T02:29:27;0.77;;;0.60;;
9797;SDS011;4938;57.492;12.652;2022-07-17T02:32:14;0.77;;;0.50;;
9797;SDS011;4938;57.492;12.652;2022-07-17T02:35:01;1.00;;;0.80;;
9797;SDS011;4938;57.492;12.652;2022-07-17T02:37:48;0.63;;;0.63;;
9797;SDS011;4938;57.492;12.652;2022-07-17T02:40:35;0.50;;;0.47;;
9797;SDS011;4938;57.492;12.652;2022-07-17T02:43:22;0.80;;;0.67;;
9797;SDS011;4938;57.492;12.652;2022-07-17T02:46:10;0.70;;;0.70;;
9797;SDS011;4938;57.492;12.652;2022-07-17T02:48:58;0.83;;;0.30;;
9797;SDS011;4938;57.492;12.652;2022-07-17T02:51:45;0.90;;;0.63;;
9797;SDS011;4938;57.492;12.652;2022-07-17T02:54:32;0.60;;;0.60;;
9797;SDS011;4938;57.492;12.652;2022-07-17T02:57:19;0.60;;;0.60;;
9797;SDS011;4938;57.492;12.652;2022-07-17T03:00:07;0.70;;;0.70;;
9797;SDS011;4938;57.492;12.652;2022-07-17T03:02:58;0.80;;;0.70;;
9797;SDS011;4938;57.492;12.652;2022-07-17T03:05:44;0.50;;;0.40;;
9797;SDS011;4938;57.492;12.652;2022-07-17T03:08:32;0.77;;;0.77;;
9797;SDS011;4938;57.492;12.652;2022-07-17T03:11:19;0.83;;;0.70;;
9797;SDS011;4938;57.492;12.652;2022-07-17T03:14:06;0.70;;;0.60;;
9797;SDS011;4938;57.492;12.652;2022-07-17T03:16:53;1.40;;;0.70;;
9797;SDS011;4938;57.492;12.652;2022-07-17T03:19:41;1.03;;;0.73;;
9797;SDS011;4938;57.492;12.652;2022-07-17T03:22:28;0.80;;;0.80;;
9797;SDS011;4938;57.492;12.652;2022-07-17T03:25:15;0.77;;;0.77;;
9797;SDS011;4938;57.492;12.652;2022-07-17T03:28:02;0.70;;;0.57;;
9797;SDS011;4938;57.492;12.652;2022-07-17T03:30:50;0.70;;;0.50;;
9797;SDS011;4938;57.492;12.652;2022-07-17T03:33:36;1.10;;;0.60;;
9797;SDS011;4938;57.492;12.652;2022-07-17T03:36:25;1.47;;;1.00;;
9797;SDS011;4938;57.492;12.652;2022-07-17T03:39:12;1.53;;;1.07;;
9797;SDS011;4938;57.492;12.652;2022-07-17T03:41:59;0.90;;;0.87;;
9797;SDS011;4938;57.492;12.652;2022-07-17T03:44:46;0.77;;;0.70;;
9797;SDS011;4938;57.492;12.652;2022-07-17T03:47:33;0.93;;;0.80;;
9797;SDS011;4938;57.492;12.652;2022-07-17T03:50:20;1.60;;;0.90;;
9797;SDS011;4938;57.492;12.652;2022-07-17T03:53:09;1.67;;;0.90;;
9797;SDS011;4938;57.492;12.652;2022-07-17T03:55:56;1.40;;;1.10;;
9797;SDS011;4938;57.492;12.652;2022-07-17T03:58:43;1.43;;;0.80;;
9797;SDS011;4938;57.492;12.652;2022-07-17T04:01:30;1.30;;;0.90;;
9797;SDS011;4938;57.492;12.652;2022-07-17T04:04:17;1.23;;;1.00;;
9797;SDS011;4938;57.492;12.652;2022-07-17T04:07:04;1.10;;;1.00;;
9797;SDS011;4938;57.492;12.652;2022-07-17T04:09:52;1.77;;;0.90;;
9797;SDS011;4938;57.492;12.652;2022-07-17T04:12:40;2.00;;;0.80;;
9797;SDS011;4938;57.492;12.652;2022-07-17T04:15:27;1.00;;;0.67;;
9797;SDS011;4938;57.492;12.652;2022-07-17T04:18:35;1.80;;;0.97;;
9797;SDS011;4938;57.492;12.652;2022-07-17T04:21:22;1.40;;;0.97;;
9797;SDS011;4938;57.492;12.652;2022-07-17T04:24:09;1.00;;;0.90;;
9797;SDS011;4938;57.492;12.652;2022-07-17T04:26:57;1.00;;;0.83;;
9797;SDS011;4938;57.492;12.652;2022-07-17T04:29:44;2.27;;;1.50;;
9797;SDS011;4938;57.492;12.652;2022-07-17T04:32:31;1.00;;;0.90;;
9797;SDS011;4938;57.492;12.652;2022-07-17T04:35:18;1.57;;;1.23;;
9797;SDS011;4938;57.492;12.652;2022-07-17T04:38:06;1.83;;;0.70;;
9797;SDS011;4938;57.492;12.652;2022-07-17T04:40:54;1.43;;;0.80;;
9797;SDS011;4938;57.492;12.652;2022-07-17T04:43:43;2.50;;;1.10;;
9797;SDS011;4938;57.492;12.652;2022-07-17T04:46:30;2.73;;;1.00;;
9797;SDS011;4938;57.492;12.652;2022-07-17T04:49:17;1.63;;;1.20;;
9797;SDS011;4938;57.492;12.652;2022-07-17T04:52:04;1.40;;;1.20;;
9797;SDS011;4938;57.492;12.652;2022-07-17T04:54:51;2.27;;;1.23;;
9797;SDS011;4938;57.492;12.652;2022-07-17T04:57:38;3.10;;;1.40;;
9797;SDS011;4938;57.492;12.652;2022-07-17T05:00:27;1.53;;;1.20;;
9797;SDS011;4938;57.492;12.652;2022-07-17T05:03:14;2.57;;;1.33;;
9797;SDS011;4938;57.492;12.652;2022-07-17T05:06:01;1.20;;;1.10;;
9797;SDS011;4938;57.492;12.652;2022-07-17T05:08:48;2.17;;;1.17;;
9797;SDS011;4938;57.492;12.652;2022-07-17T05:11:35;1.20;;;0.97;;
9797;SDS011;4938;57.492;12.652;2022-07-17T05:14:22;1.13;;;1.03;;
9797;SDS011;4938;57.492;12.652;2022-07-17T05:17:10;2.70;;;1.50;;
9797;SDS011;4938;57.492;12.652;2022-07-17T05:19:57;1.10;;;1.00;;
9797;SDS011;4938;57.492;12.652;2022-07-17T05:22:44;1.70;;;0.83;;
9797;SDS011;4938;57.492;12.652;2022-07-17T05:25:31;1.67;;;1.30;;
9797;SDS011;4938;57.492;12.652;2022-07-17T05:28:18;1.87;;;1.23;;
9797;SDS011;4938;57.492;12.652;2022-07-17T05:31:05;1.40;;;0.90;;
9797;SDS011;4938;57.492;12.652;2022-07-17T05:33:54;1.53;;;1.00;;
9797;SDS011;4938;57.492;12.652;2022-07-17T05:36:41;2.13;;;1.30;;
9797;SDS011;4938;57.492;12.652;2022-07-17T05:39:28;2.93;;;1.20;;
9797;SDS011;4938;57.492;12.652;2022-07-17T05:42:15;1.20;;;1.00;;
9797;SDS011;4938;57.492;12.652;2022-07-17T05:45:02;1.83;;;1.17;;
9797;SDS011;4938;57.492;12.652;2022-07-17T05:47:49;1.30;;;1.20;;
9797;SDS011;4938;57.492;12.652;2022-07-17T05:50:38;1.63;;;1.02;;
9797;SDS011;4938;57.492;12.652;2022-07-17T05:53:25;1.38;;;1.17;;
9797;SDS011;4938;57.492;12.652;2022-07-17T05:56:12;1.70;;;1.43;;
9797;SDS011;4938;57.492;12.652;2022-07-17T05:58:59;1.33;;;1.20;;
9797;SDS011;4938;57.492;12.652;2022-07-17T06:01:46;1.60;;;1.30;;
9797;SDS011;4938;57.492;12.652;2022-07-17T06:04:33;2.40;;;1.60;;
9797;SDS011;4938;57.492;12.652;2022-07-17T06:07:21;2.40;;;1.20;;
9797;SDS011;4938;57.492;12.652;2022-07-17T06:10:08;2.42;;;1.25;;
9797;SDS011;4938;57.492;12.652;2022-07-17T06:12:56;1.63;;;1.17;;
9797;SDS011;4938;57.492;12.652;2022-07-17T06:15:43;1.67;;;1.10;;
9797;SDS011;4938;57.492;12.652;2022-07-17T06:18:30;1.67;;;1.17;;
9797;SDS011;4938;57.492;12.652;2022-07-17T06:21:17;1.15;;;1.00;;
9797;SDS011;4938;57.492;12.652;2022-07-17T06:24:05;1.60;;;1.25;;
9797;SDS011;4938;57.492;12.652;2022-07-17T06:26:52;1.98;;;1.30;;
9797;SDS011;4938;57.492;12.652;2022-07-17T06:29:39;1.50;;;1.15;;
9797;SDS011;4938;57.492;12.652;2022-07-17T06:32:26;1.70;;;1.15;;
9797;SDS011;4938;57.492;12.652;2022-07-17T06:35:13;1.73;;;1.40;;
9797;SDS011;4938;57.492;12.652;2022-07-17T06:38:01;1.77;;;1.45;;
9797;SDS011;4938;57.492;12.652;2022-07-17T06:40:50;1.27;;;1.00;;
9797;SDS011;4938;57.492;12.652;2022-07-17T06:43:37;1.13;;;1.05;;
9797;SDS011;4938;57.492;12.652;2022-07-17T06:46:24;1.58;;;1.25;;
9797;SDS011;4938;57.492;12.652;2022-07-17T06:49:11;1.70;;;1.23;;
9797;SDS011;4938;57.492;12.652;2022-07-17T06:51:58;1.90;;;1.05;;
9797;SDS011;4938;57.492;12.652;2022-07-17T06:54:45;2.47;;;1.42;;
9797;SDS011;4938;57.492;12.652;2022-07-17T06:57:34;1.20;;;1.10;;
9797;SDS011;4938;57.492;12.652;2022-07-17T07:00:21;1.90;;;1.30;;
9797;SDS011;4938;57.492;12.652;2022-07-17T07:03:08;1.73;;;1.50;;
9797;SDS011;4938;57.492;12.652;2022-07-17T07:05:55;1.10;;;0.88;;
9797;SDS011;4938;57.492;12.652;2022-07-17T07:08:42;2.28;;;1.10;;
9797;SDS011;4938;57.492;12.652;2022-07-17T07:11:28;2.05;;;1.10;;
9797;SDS011;4938;57.492;12.652;2022-07-17T07:14:17;2.40;;;1.10;;
9797;SDS011;4938;57.492;12.652;2022-07-17T07:17:04;2.30;;;1.15;;
9797;SDS011;4938;57.492;12.652;2022-07-17T07:19:51;1.27;;;0.90;;
9797;SDS011;4938;57.492;12.652;2022-07-17T07:22:38;1.38;;;1.13;;
9797;SDS011;4938;57.492;12.652;2022-07-17T07:25:25;1.67;;;1.30;;
9797;SDS011;4938;57.492;12.652;2022-07-17T07:28:12;1.15;;;0.90;;
9797;SDS011;4938;57.492;12.652;2022-07-17T07:31:01;1.77;;;1.10;;
9797;SDS011;4938;57.492;12.652;2022-07-17T07:33:48;1.50;;;1.27;;
9797;SDS011;4938;57.492;12.652;2022-07-17T07:36:35;1.10;;;1.00;;
9797;SDS011;4938;57.492;12.652;2022-07-17T07:39:22;1.00;;;0.65;;
9797;SDS011;4938;57.492;12.652;2022-07-17T07:42:09;1.13;;;0.90;;
9797;SDS011;4938;57.492;12.652;2022-07-17T07:44:56;1.75;;;1.15;;
9797;SDS011;4938;57.492;12.652;2022-07-17T07:47:46;1.13;;;0.95;;
9797;SDS011;4938;57.492;12.652;2022-07-17T07:50:35;1.27;;;1.02;;
9797;SDS011;4938;57.492;12.652;2022-07-17T07:53:22;2.42;;;1.05;;
9797;SDS011;4938;57.492;12.652;2022-07-17T07:56:09;0.77;;;0.73;;
9797;SDS011;4938;57.492;12.652;2022-07-17T07:58:56;1.13;;;0.73;;
9797;SDS011;4938;57.492;12.652;2022-07-17T08:01:43;1.13;;;0.75;;
9797;SDS011;4938;57.492;12.652;2022-07-17T08:04:31;1.40;;;0.90;;
9797;SDS011;4938;57.492;12.652;2022-07-17T08:07:18;1.15;;;0.90;;
9797;SDS011;4938;57.492;12.652;2022-07-17T08:10:06;0.80;;;0.80;;
9797;SDS011;4938;57.492;12.652;2022-07-17T08:12:53;1.05;;;0.70;;
9797;SDS011;4938;57.492;12.652;2022-07-17T08:15:40;1.17;;;0.80;;
9797;SDS011;4938;57.492;12.652;2022-07-17T08:18:27;0.82;;;0.73;;
9797;SDS011;4938;57.492;12.652;2022-07-17T08:21:15;0.82;;;0.82;;
9797;SDS011;4938;57.492;12.652;2022-07-17T08:24:03;1.23;;;0.90;;
9797;SDS011;4938;57.492;12.652;2022-07-17T08:26:50;1.02;;;0.70;;
9797;SDS011;4938;57.492;12.652;2022-07-17T08:29:37;1.33;;;0.65;;
9797;SDS011;4938;57.492;12.652;2022-07-17T08:32:24;0.77;;;0.77;;
9797;SDS011;4938;57.492;12.652;2022-07-17T08:35:11;0.75;;;0.70;;
9797;SDS011;4938;57.492;12.652;2022-07-17T08:38:00;1.05;;;0.68;;
9797;SDS011;4938;57.492;12.652;2022-07-17T08:40:48;0.65;;;0.60;;
9797;SDS011;4938;57.492;12.652;2022-07-17T08:43:38;0.68;;;0.55;;
9797;SDS011;4938;57.492;12.652;2022-07-17T08:46:25;0.43;;;0.43;;
9797;SDS011;4938;57.492;12.652;2022-07-17T08:49:14;0.40;;;0.38;;
9797;SDS011;4938;57.492;12.652;2022-07-17T08:52:07;0.93;;;0.70;;
9797;SDS011;4938;57.492;12.652;2022-07-17T08:54:57;2.35;;;0.47;;
9797;SDS011;4938;57.492;12.652;2022-07-17T08:57:44;0.50;;;0.50;;
9797;SDS011;4938;57.492;12.652;2022-07-17T09:00:31;0.70;;;0.70;;
9797;SDS011;4938;57.492;12.652;2022-07-17T09:03:18;0.93;;;0.57;;
9797;SDS011;4938;57.492;12.652;2022-07-17T09:06:16;0.40;;;0.40;;
9797;SDS011;4938;57.492;12.652;2022-07-17T09:09:05;0.28;;;0.28;;
9797;SDS011;4938;57.492;12.652;2022-07-17T09:11:54;1.10;;;0.55;;
9797;SDS011;4938;57.492;12.652;2022-07-17T09:14:44;0.60;;;0.57;;
9797;SDS011;4938;57.492;12.652;2022-07-17T09:17:31;0.43;;;0.40;;
9797;SDS011;4938;57.492;12.652;2022-07-17T09:20:20;0.35;;;0.30;;
9797;SDS011;4938;57.492;12.652;2022-07-17T09:23:07;0.40;;;0.40;;
9797;SDS011;4938;57.492;12.652;2022-07-17T09:25:55;0.40;;;0.40;;
9797;SDS011;4938;57.492;12.652;2022-07-17T09:28:47;0.47;;;0.40;;
9797;SDS011;4938;57.492;12.652;2022-07-17T09:31:34;0.63;;;0.50;;
9797;SDS011;4938;57.492;12.652;2022-07-17T09:34:21;0.68;;;0.40;;
9797;SDS011;4938;57.492;12.652;2022-07-17T09:37:08;0.68;;;0.50;;
9797;SDS011;4938;57.492;12.652;2022-07-17T09:39:56;0.32;;;0.30;;
9797;SDS011;4938;57.492;12.652;2022-07-17T09:42:44;0.43;;;0.40;;
9797;SDS011;4938;57.492;12.652;2022-07-17T09:45:33;0.38;;;0.32;;
9797;SDS011;4938;57.492;12.652;2022-07-17T09:48:20;0.55;;;0.35;;
9797;SDS011;4938;57.492;12.652;2022-07-17T09:51:07;0.30;;;0.30;;
9797;SDS011;4938;57.492;12.652;2022-07-17T09:53:59;0.50;;;0.50;;
9797;SDS011;4938;57.492;12.652;2022-07-17T09:56:48;0.60;;;0.40;;
9797;SDS011;4938;57.492;12.652;2022-07-17T09:59:36;1.75;;;0.40;;
9797;SDS011;4938;57.492;12.652;2022-07-17T10:02:25;0.20;;;0.20;;
9797;SDS011;4938;57.492;12.652;2022-07-17T10:05:13;0.40;;;0.40;;
9797;SDS011;4938;57.492;12.652;2022-07-17T10:08:02;0.40;;;0.40;;
9797;SDS011;4938;57.492;12.652;2022-07-17T10:10:49;1.38;;;0.35;;
9797;SDS011;4938;57.492;12.652;2022-07-17T10:13:38;0.45;;;0.45;;
9797;SDS011;4938;57.492;12.652;2022-07-17T10:16:28;0.43;;;0.30;;
9797;SDS011;4938;57.492;12.652;2022-07-17T10:19:20;0.40;;;0.30;;
9797;SDS011;4938;57.492;12.652;2022-07-17T10:22:09;0.28;;;0.28;;
9797;SDS011;4938;57.492;12.652;2022-07-17T10:24:57;0.13;;;0.13;;
9797;SDS011;4938;57.492;12.652;2022-07-17T10:27:51;0.35;;;0.35;;
9797;SDS011;4938;57.492;12.652;2022-07-17T10:30:41;0.80;;;0.20;;
9797;SDS011;4938;57.492;12.652;2022-07-17T10:33:31;0.30;;;0.30;;
9797;SDS011;4938;57.492;12.652;2022-07-17T10:36:19;0.38;;;0.30;;
9797;SDS011;4938;57.492;12.652;2022-07-17T10:39:10;0.30;;;0.30;;
9797;SDS011;4938;57.492;12.652;2022-07-17T10:41:58;0.30;;;0.30;;
9797;SDS011;4938;57.492;12.652;2022-07-17T10:44:47;0.30;;;0.25;;
9797;SDS011;4938;57.492;12.652;2022-07-17T10:47:42;0.20;;;0.20;;
9797;SDS011;4938;57.492;12.652;2022-07-17T10:50:35;0.30;;;0.30;;
9797;SDS011;4938;57.492;12.652;2022-07-17T10:53:27;0.32;;;0.20;;
9797;SDS011;4938;57.492;12.652;2022-07-17T10:56:15;0.22;;;0.22;;
9797;SDS011;4938;57.492;12.652;2022-07-17T10:59:03;0.43;;;0.28;;
9797;SDS011;4938;57.492;12.652;2022-07-17T11:01:55;0.30;;;0.20;;
9797;SDS011;4938;57.492;12.652;2022-07-17T11:04:42;1.25;;;0.32;;
9797;SDS011;4938;57.492;12.652;2022-07-17T11:07:29;0.17;;;0.17;;
9797;SDS011;4938;57.492;12.652;2022-07-17T11:10:18;0.28;;;0.22;;
9797;SDS011;4938;57.492;12.652;2022-07-17T11:13:08;1.95;;;0.30;;
9797;SDS011;4938;57.492;12.652;2022-07-17T11:15:57;0.32;;;0.20;;
9797;SDS011;4938;57.492;12.652;2022-07-17T11:18:45;0.22;;;0.22;;
9797;SDS011;4938;57.492;12.652;2022-07-17T11:21:33;0.38;;;0.20;;
9797;SDS011;4938;57.492;12.652;2022-07-17T11:24:35;0.55;;;0.30;;
9797;SDS011;4938;57.492;12.652;2022-07-17T11:27:24;0.10;;;0.10;;
9797;SDS011;4938;57.492;12.652;2022-07-17T11:30:12;0.20;;;0.20;;
9797;SDS011;4938;57.492;12.652;2022-07-17T11:33:01;0.20;;;0.20;;
9797;SDS011;4938;57.492;12.652;2022-07-17T11:35:49;0.77;;;0.10;;
9797;SDS011;4938;57.492;12.652;2022-07-17T11:38:35;0.98;;;0.20;;
9797;SDS011;4938;57.492;12.652;2022-07-17T11:41:30;0.20;;;0.20;;
9797;SDS011;4938;57.492;12.652;2022-07-17T11:44:23;0.20;;;0.20;;
9797;SDS011;4938;57.492;12.652;2022-07-17T11:47:11;0.20;;;0.20;;
9797;SDS011;4938;57.492;12.652;2022-07-17T11:50:06;1.35;;;0.30;;
9797;SDS011;4938;57.492;12.652;2022-07-17T11:52:54;0.35;;;0.35;;
9797;SDS011;4938;57.492;12.652;2022-07-17T11:55:47;0.30;;;0.20;;
9797;SDS011;4938;57.492;12.652;2022-07-17T11:58:41;0.88;;;0.28;;
9797;SDS011;4938;57.492;12.652;2022-07-17T12:01:38;0.17;;;0.10;;
9797;SDS011;4938;57.492;12.652;2022-07-17T12:04:26;0.20;;;0.20;;
9797;SDS011;4938;57.492;12.652;2022-07-17T12:07:13;0.10;;;0.10;;
9797;SDS011;4938;57.492;12.652;2022-07-17T12:10:10;0.13;;;0.13;;
9797;SDS011;4938;57.492;12.652;2022-07-17T12:12:58;0.30;;;0.30;;
9797;SDS011;4938;57.492;12.652;2022-07-17T12:15:47;0.15;;;0.10;;
9797;SDS011;4938;57.492;12.652;2022-07-17T12:18:36;0.17;;;0.17;;
9797;SDS011;4938;57.492;12.652;2022-07-17T12:21:23;0.28;;;0.28;;
9797;SDS011;4938;57.492;12.652;2022-07-17T12:24:17;0.20;;;0.20;;
9797;SDS011;4938;57.492;12.652;2022-07-17T12:27:06;0.20;;;0.20;;
9797;SDS011;4938;57.492;12.652;2022-07-17T12:29:54;0.43;;;0.20;;
9797;SDS011;4938;57.492;12.652;2022-07-17T12:32:41;0.38;;;0.30;;
9797;SDS011;4938;57.492;12.652;2022-07-17T12:35:30;0.10;;;0.10;;
9797;SDS011;4938;57.492;12.652;2022-07-17T12:38:17;0.73;;;0.30;;
9797;SDS011;4938;57.492;12.652;2022-07-17T12:41:04;0.55;;;0.32;;
9797;SDS011;4938;57.492;12.652;2022-07-17T12:43:51;0.10;;;0.10;;
9797;SDS011;4938;57.492;12.652;2022-07-17T12:46:38;0.20;;;0.20;;
9797;SDS011;4938;57.492;12.652;2022-07-17T12:49:25;0.28;;;0.22;;
9797;SDS011;4938;57.492;12.652;2022-07-17T12:52:13;0.32;;;0.13;;
9797;SDS011;4938;57.492;12.652;2022-07-17T12:55:00;0.90;;;0.20;;
9797;SDS011;4938;57.492;12.652;2022-07-17T12:57:47;0.40;;;0.40;;
9797;SDS011;4938;57.492;12.652;2022-07-17T13:00:34;0.82;;;0.80;;
9797;SDS011;4938;57.492;12.652;2022-07-17T13:03:21;1.13;;;0.80;;
9797;SDS011;4938;57.492;12.652;2022-07-17T13:06:09;1.23;;;0.98;;
9797;SDS011;4938;57.492;12.652;2022-07-17T13:08:58;2.13;;;1.20;;
9797;SDS011;4938;57.492;12.652;2022-07-17T13:11:45;2.10;;;1.40;;
9797;SDS011;4938;57.492;12.652;2022-07-17T13:14:32;3.08;;;2.15;;
9797;SDS011;4938;57.492;12.652;2022-07-17T13:17:19;3.00;;;1.67;;
9797;SDS011;4938;57.492;12.652;2022-07-17T13:20:06;2.67;;;2.20;;
9797;SDS011;4938;57.492;12.652;2022-07-17T13:22:54;3.13;;;2.30;;
9797;SDS011;4938;57.492;12.652;2022-07-17T13:25:43;3.47;;;2.47;;
9797;SDS011;4938;57.492;12.652;2022-07-17T13:28:30;4.50;;;3.20;;
9797;SDS011;4938;57.492;12.652;2022-07-17T13:31:17;5.88;;;3.28;;
9797;SDS011;4938;57.492;12.652;2022-07-17T13:34:04;4.00;;;2.83;;
9797;SDS011;4938;57.492;12.652;2022-07-17T13:36:51;5.35;;;3.10;;
9797;SDS011;4938;57.492;12.652;2022-07-17T13:39:38;6.65;;;3.10;;
9797;SDS011;4938;57.492;12.652;2022-07-17T13:42:26;5.57;;;3.50;;
9797;SDS011;4938;57.492;12.652;2022-07-17T13:45:13;5.80;;;2.88;;
9797;SDS011;4938;57.492;12.652;2022-07-17T13:48:00;5.90;;;3.33;;
9797;SDS011;4938;57.492;12.652;2022-07-17T13:50:47;5.13;;;3.20;;
9797;SDS011;4938;57.492;12.652;2022-07-17T13:53:34;8.00;;;3.78;;
9797;SDS011;4938;57.492;12.652;2022-07-17T13:56:22;5.32;;;3.28;;
9797;SDS011;4938;57.492;12.652;2022-07-17T13:59:11;8.23;;;3.72;;
9797;SDS011;4938;57.492;12.652;2022-07-17T14:01:58;6.78;;;3.53;;
9797;SDS011;4938;57.492;12.652;2022-07-17T14:04:45;5.00;;;3.33;;
9797;SDS011;4938;57.492;12.652;2022-07-17T14:07:32;8.15;;;3.20;;
9797;SDS011;4938;57.492;12.652;2022-07-17T14:10:19;6.80;;;3.53;;
9797;SDS011;4938;57.492;12.652;2022-07-17T14:13:07;7.40;;;3.28;;
9797;SDS011;4938;57.492;12.652;2022-07-17T14:15:55;5.97;;;3.50;;
9797;SDS011;4938;57.492;12.652;2022-07-17T14:18:42;5.95;;;3.22;;
9797;SDS011;4938;57.492;12.652;2022-07-17T14:21:35;6.60;;;3.35;;
9797;SDS011;4938;57.492;12.652;2022-07-17T14:24:23;4.70;;;3.17;;
9797;SDS011;4938;57.492;12.652;2022-07-17T14:27:10;4.97;;;3.10;;
9797;SDS011;4938;57.492;12.652;2022-07-17T14:29:57;6.00;;;3.25;;
9797;SDS011;4938;57.492;12.652;2022-07-17T14:32:44;6.50;;;3.25;;
9797;SDS011;4938;57.492;12.652;2022-07-17T14:35:32;4.60;;;2.90;;
9797;SDS011;4938;57.492;12.652;2022-07-17T14:38:21;5.35;;;2.70;;
9797;SDS011;4938;57.492;12.652;2022-07-17T14:41:08;4.65;;;2.50;;
9797;SDS011;4938;57.492;12.652;2022-07-17T14:43:55;4.60;;;2.65;;
9797;SDS011;4938;57.492;12.652;2022-07-17T14:46:43;4.20;;;2.65;;
9797;SDS011;4938;57.492;12.652;2022-07-17T14:49:29;4.38;;;2.78;;
9797;SDS011;4938;57.492;12.652;2022-07-17T14:52:17;3.88;;;2.50;;
9797;SDS011;4938;57.492;12.652;2022-07-17T14:55:06;3.13;;;2.42;;
9797;SDS011;4938;57.492;12.652;2022-07-17T14:57:53;3.85;;;2.40;;
9797;SDS011;4938;57.492;12.652;2022-07-17T15:00:40;2.75;;;1.98;;
9797;SDS011;4938;57.492;12.652;2022-07-17T15:03:27;2.70;;;2.22;;
9797;SDS011;4938;57.492;12.652;2022-07-17T15:06:14;3.78;;;2.35;;
9797;SDS011;4938;57.492;12.652;2022-07-17T15:09:01;2.22;;;1.92;;
9797;SDS011;4938;57.492;12.652;2022-07-17T15:11:50;2.58;;;1.85;;
9797;SDS011;4938;57.492;12.652;2022-07-17T15:14:37;2.70;;;2.05;;
9797;SDS011;4938;57.492;12.652;2022-07-17T15:17:24;2.10;;;1.90;;
9797;SDS011;4938;57.492;12.652;2022-07-17T15:20:11;2.67;;;2.38;;
9797;SDS011;4938;57.492;12.652;2022-07-17T15:22:58;4.07;;;2.35;;
9797;SDS011;4938;57.492;12.652;2022-07-17T15:25:45;2.40;;;1.83;;
9797;SDS011;4938;57.492;12.652;2022-07-17T15:28:33;2.58;;;1.85;;
9797;SDS011;4938;57.492;12.652;2022-07-17T15:31:20;2.92;;;1.92;;
9797;SDS011;4938;57.492;12.652;2022-07-17T15:34:07;3.10;;;2.00;;
9797;SDS011;4938;57.492;12.652;2022-07-17T15:36:54;1.83;;;1.70;;
9797;SDS011;4938;57.492;12.652;2022-07-17T15:39:41;3.70;;;2.28;;
9797;SDS011;4938;57.492;12.652;2022-07-17T15:42:28;1.70;;;1.60;;
9797;SDS011;4938;57.492;12.652;2022-07-17T15:45:17;2.45;;;1.95;;
9797;SDS011;4938;57.492;12.652;2022-07-17T15:48:05;1.77;;;1.35;;
9797;SDS011;4938;57.492;12.652;2022-07-17T15:50:52;1.95;;;1.70;;
9797;SDS011;4938;57.492;12.652;2022-07-17T15:53:39;2.30;;;1.80;;
9797;SDS011;4938;57.492;12.652;2022-07-17T15:56:26;2.03;;;1.70;;
9797;SDS011;4938;57.492;12.652;2022-07-17T15:59:13;2.00;;;1.80;;
9797;SDS011;4938;57.492;12.652;2022-07-17T16:02:03;2.00;;;1.80;;
9797;SDS011;4938;57.492;12.652;2022-07-17T16:04:50;1.90;;;1.50;;
9797;SDS011;4938;57.492;12.652;2022-07-17T16:07:37;2.70;;;1.70;;
9797;SDS011;4938;57.492;12.652;2022-07-17T16:10:24;1.67;;;1.58;;
9797;SDS011;4938;57.492;12.652;2022-07-17T16:13:11;1.83;;;1.73;;
9797;SDS011;4938;57.492;12.652;2022-07-17T16:15:58;1.88;;;1.67;;
9797;SDS011;4938;57.492;12.652;2022-07-17T16:18:46;2.97;;;2.00;;
9797;SDS011;4938;57.492;12.652;2022-07-17T16:21:35;2.28;;;1.45;;
9797;SDS011;4938;57.492;12.652;2022-07-17T16:24:22;2.28;;;1.67;;
9797;SDS011;4938;57.492;12.652;2022-07-17T16:27:09;1.50;;;1.38;;
9797;SDS011;4938;57.492;12.652;2022-07-17T16:29:56;1.55;;;1.45;;
9797;SDS011;4938;57.492;12.652;2022-07-17T16:32:44;2.25;;;1.67;;
9797;SDS011;4938;57.492;12.652;2022-07-17T16:35:32;1.77;;;1.67;;
9797;SDS011;4938;57.492;12.652;2022-07-17T16:38:19;1.63;;;1.52;;
9797;SDS011;4938;57.492;12.652;2022-07-17T16:41:06;1.52;;;1.42;;
9797;SDS011;4938;57.492;12.652;2022-07-17T16:43:53;2.40;;;1.60;;
9797;SDS011;4938;57.492;12.652;2022-07-17T16:46:40;1.30;;;1.20;;
9797;SDS011;4938;57.492;12.652;2022-07-17T16:49:27;1.73;;;1.50;;
9797;SDS011;4938;57.492;12.652;2022-07-17T16:52:15;1.52;;;1.42;;
9797;SDS011;4938;57.492;12.652;2022-07-17T16:55:03;1.50;;;1.40;;
9797;SDS011;4938;57.492;12.652;2022-07-17T16:57:50;1.63;;;1.52;;
9797;SDS011;4938;57.492;12.652;2022-07-17T17:00:37;1.65;;;1.55;;
9797;SDS011;4938;57.492;12.652;2022-07-17T17:03:24;1.85;;;1.63;;
9797;SDS011;4938;57.492;12.652;2022-07-17T17:06:11;1.20;;;1.20;;